Time;durP1;ratioP1;P1;durP2;ratioP2;P2;SDS_P1;SDS_P2;PMS_P1;PMS_P2;Temp;Humidity;BMP_temperature;BMP_pressure;BME280_temperature;BME280_humidity;BME280_pressure;Samples;Min_cycle;Max_cycle;Signal;HPM_P1;HPM_P2
2022/08/14 00:01:37;;;;;;;0.68;0.40;;;14.40;93.20;;;;;;4976048;28;20021;-73
2022/08/14 00:04:04;;;;;;;0.52;0.50;;;14.60;92.50;;;;;;4975074;28;20113;-73
2022/08/14 00:06:31;;;;;;;0.43;0.40;;;14.60;92.40;;;;;;4975307;28;20022;-73
2022/08/14 00:08:59;;;;;;;1.10;0.50;;;14.70;92.20;;;;;;4974954;28;20065;-73
2022/08/14 00:11:29;;;;;;;1.70;0.65;;;14.80;91.30;;;;;;4956921;28;20030;-73
2022/08/14 00:13:57;;;;;;;0.70;0.40;;;14.80;91.00;;;;;;4956618;28;20483;-73
2022/08/14 00:16:25;;;;;;;1.42;0.47;;;14.90;90.40;;;;;;4972004;28;20061;-72
2022/08/14 00:18:52;;;;;;;0.47;0.47;;;14.90;90.90;;;;;;4980146;28;20022;-72
2022/08/14 00:21:19;;;;;;;1.33;0.40;;;15.10;91.30;;;;;;4977872;28;20027;-73
2022/08/14 00:23:47;;;;;;;0.98;0.40;;;15.30;91.20;;;;;;4980798;28;20023;-72
2022/08/14 00:26:14;;;;;;;0.80;0.43;;;15.50;90.50;;;;;;4979820;28;20096;-73
2022/08/14 00:28:41;;;;;;;0.70;0.50;;;15.60;90.30;;;;;;4980111;28;20049;-73
2022/08/14 00:31:09;;;;;;;0.63;0.63;;;15.70;90.20;;;;;;4978564;28;20018;-73
2022/08/14 00:33:37;;;;;;;1.70;0.50;;;15.80;90.00;;;;;;4979278;28;20031;-73
2022/08/14 00:36:04;;;;;;;1.27;0.50;;;15.80;90.00;;;;;;4979160;28;20025;-74
2022/08/14 00:38:33;;;;;;;0.65;0.45;;;15.80;90.20;;;;;;4978793;28;20027;-73
2022/08/14 00:41:05;;;;;;;1.20;0.40;;;15.70;89.30;;;;;;4995359;28;20025;-74
2022/08/14 00:43:37;;;;;;;0.40;0.40;;;15.70;90.10;;;;;;4961136;28;20093;-75
2022/08/14 00:46:09;;;;;;;1.13;0.47;;;15.70;87.30;;;;;;4979242;28;20320;-75
2022/08/14 00:48:37;;;;;;;0.30;0.30;;;15.80;88.00;;;;;;4963448;28;20387;-74
2022/08/14 00:51:07;;;;;;;0.60;0.43;;;15.70;86.70;;;;;;4977185;28;20561;-75
2022/08/14 00:53:36;;;;;;;1.00;0.50;;;15.70;87.20;;;;;;4974584;28;20407;-71
2022/08/14 00:56:08;;;;;;;0.50;0.50;;;15.80;86.30;;;;;;4979255;28;20142;-73
2022/08/14 00:58:36;;;;;;;0.50;0.50;;;15.80;86.20;;;;;;4977272;28;20759;-72
2022/08/14 01:01:10;;;;;;;1.38;0.70;;;15.70;85.50;;;;;;4980133;28;20034;-73
2022/08/14 01:03:40;;;;;;;0.30;0.30;;;15.80;86.00;;;;;;4978954;28;20062;-74
2022/08/14 01:06:10;;;;;;;0.43;0.40;;;15.90;85.10;;;;;;4978673;28;20080;-73
2022/08/14 01:08:40;;;;;;;4.95;0.50;;;15.80;84.40;;;;;;4979461;28;20050;-74
2022/08/14 01:11:08;;;;;;;1.40;0.50;;;15.90;85.10;;;;;;4979676;28;20022;-73
2022/08/14 01:13:38;;;;;;;0.40;0.40;;;15.90;86.30;;;;;;4979174;28;20027;-74
2022/08/14 01:16:09;;;;;;;0.82;0.60;;;15.90;84.20;;;;;;4979969;28;20022;-75
2022/08/14 01:21:34;;;;;;;0.73;0.50;;;15.90;83.60;;;;;;4978330;28;20045;-74
2022/08/14 01:24:02;;;;;;;2.58;0.70;;;16.00;83.20;;;;;;4979933;28;20153;-74
2022/08/14 01:26:30;;;;;;;0.85;0.50;;;16.10;83.20;;;;;;4978188;28;20476;-74
2022/08/14 01:28:58;;;;;;;0.80;0.50;;;16.30;82.30;;;;;;4978494;28;20446;-73
2022/08/14 01:31:41;;;;;;;3.03;0.60;;;16.40;82.20;;;;;;4978600;28;20318;-74
2022/08/14 01:34:09;;;;;;;0.40;0.40;;;16.60;82.30;;;;;;4978208;28;20486;-73
2022/08/14 01:36:40;;;;;;;2.85;0.50;;;16.60;80.50;;;;;;4978949;28;20117;-73
2022/08/14 01:39:15;;;;;;;0.60;0.52;;;16.60;79.80;;;;;;4978450;28;20105;-74
2022/08/14 01:41:51;;;;;;;0.82;0.50;;;16.60;80.70;;;;;;4979926;28;20101;-72
2022/08/14 01:44:18;;;;;;;0.38;0.38;;;16.60;79.30;;;;;;4975444;28;20848;-74
2022/08/14 01:46:45;;;;;;;0.40;0.40;;;16.50;79.50;;;;;;4979529;28;20034;-74
2022/08/14 01:49:14;;;;;;;0.68;0.50;;;16.60;78.70;;;;;;4977376;28;20447;-75
2022/08/14 01:51:43;;;;;;;0.50;0.50;;;16.60;78.40;;;;;;4979899;28;20022;-75
2022/08/14 01:54:20;;;;;;;0.77;0.47;;;16.70;78.50;;;;;;4978792;28;20026;-75
2022/08/14 01:56:53;;;;;;;1.05;0.60;;;16.70;77.70;;;;;;4979576;28;20038;-74
2022/08/14 01:59:30;;;;;;;1.00;0.60;;;16.80;78.20;;;;;;4976515;28;20820;-73
2022/08/14 02:02:00;;;;;;;0.80;0.50;;;17.00;77.60;;;;;;4979471;28;20026;-72
2022/08/14 02:04:31;;;;;;;1.05;0.40;;;17.00;76.70;;;;;;4977782;28;20033;-75
2022/08/14 02:06:59;;;;;;;0.75;0.45;;;17.10;76.80;;;;;;4979488;28;20025;-72
2022/08/14 02:09:26;;;;;;;0.82;0.43;;;17.20;76.80;;;;;;4976738;28;20042;-73
2022/08/14 02:11:55;;;;;;;0.70;0.57;;;17.40;76.60;;;;;;4980178;28;20029;-75
2022/08/14 02:14:22;;;;;;;0.50;0.40;;;17.70;76.50;;;;;;4976094;28;20031;-75
2022/08/14 02:16:51;;;;;;;0.70;0.50;;;17.90;75.10;;;;;;4979347;28;20061;-73
2022/08/14 02:19:26;;;;;;;0.45;0.45;;;18.00;74.80;;;;;;4976480;28;20073;-75
2022/08/14 02:21:57;;;;;;;0.98;0.50;;;18.10;74.30;;;;;;4979163;28;20023;-73
2022/08/14 02:24:30;;;;;;;0.97;0.60;;;18.00;73.90;;;;;;4976135;28;20062;-73
2022/08/14 02:26:59;;;;;;;0.82;0.50;;;18.00;74.50;;;;;;4978297;28;20072;-76
2022/08/14 02:29:31;;;;;;;0.40;0.30;;;18.20;74.50;;;;;;4976370;28;20030;-76
2022/08/14 02:32:00;;;;;;;1.45;0.60;;;18.30;73.80;;;;;;4978980;28;20057;-78
2022/08/14 02:34:37;;;;;;;0.80;0.50;;;18.50;73.20;;;;;;4976371;28;20022;-78
2022/08/14 02:37:08;;;;;;;0.95;0.50;;;18.60;74.40;;;;;;4979495;28;20089;-75
2022/08/14 02:39:44;;;;;;;0.50;0.50;;;18.80;73.00;;;;;;4975859;28;20023;-74
2022/08/14 02:42:16;;;;;;;0.38;0.38;;;18.90;71.50;;;;;;4978749;28;20033;-74
2022/08/14 02:44:46;;;;;;;0.80;0.40;;;18.80;72.30;;;;;;4976559;28;20018;-75
2022/08/14 02:47:14;;;;;;;0.52;0.52;;;19.10;72.30;;;;;;4977703;28;20045;-75
2022/08/14 02:49:42;;;;;;;0.50;0.50;;;19.30;71.80;;;;;;4976275;28;20335;-74
2022/08/14 02:52:12;;;;;;;0.75;0.50;;;19.60;70.60;;;;;;4977982;28;20437;-76
2022/08/14 02:54:40;;;;;;;1.48;0.50;;;19.80;69.80;;;;;;4976151;28;20023;-72
2022/08/14 02:57:07;;;;;;;1.15;1.05;;;19.80;70.70;;;;;;4978620;28;20117;-75
2022/08/14 02:59:38;;;;;;;0.55;0.50;;;19.70;70.80;;;;;;4976165;28;20109;-74
2022/08/14 03:02:07;;;;;;;0.93;0.60;;;19.90;70.50;;;;;;4978567;28;20110;-75
2022/08/14 03:04:34;;;;;;;0.52;0.40;;;20.20;70.10;;;;;;4976487;28;20026;-76
2022/08/14 03:07:02;;;;;;;0.68;0.40;;;20.50;70.80;;;;;;4978320;28;20019;-76
2022/08/14 03:09:29;;;;;;;0.65;0.65;;;21.10;68.80;;;;;;4974717;28;20038;-74
2022/08/14 03:11:57;;;;;;;1.13;1.00;;;21.00;69.20;;;;;;4978345;28;20085;-74
2022/08/14 03:14:24;;;;;;;1.48;0.40;;;20.70;69.60;;;;;;4976685;28;20465;-75
2022/08/14 03:16:52;;;;;;;1.67;0.50;;;20.80;69.00;;;;;;4974536;28;20105;-74
2022/08/14 03:19:19;;;;;;;0.75;0.40;;;20.70;68.90;;;;;;4976799;28;20026;-72
2022/08/14 03:21:47;;;;;;;0.82;0.40;;;21.00;67.70;;;;;;4975158;28;20023;-75
2022/08/14 03:24:15;;;;;;;0.63;0.40;;;21.40;66.90;;;;;;4975919;28;20469;-73
2022/08/14 03:26:45;;;;;;;0.70;0.40;;;21.50;67.10;;;;;;4975021;28;20189;-72
2022/08/14 03:29:15;;;;;;;1.92;0.65;;;21.80;67.40;;;;;;4977549;28;20109;-74
2022/08/14 03:31:42;;;;;;;1.17;0.30;;;22.30;66.90;;;;;;4974839;28;20149;-75
2022/08/14 03:34:11;;;;;;;0.40;0.40;;;22.20;65.50;;;;;;4976393;28;20046;-71
2022/08/14 03:36:42;;;;;;;1.00;0.40;;;21.30;66.40;;;;;;4973107;28;20037;-75
2022/08/14 03:39:11;;;;;;;1.05;0.50;;;20.80;67.30;;;;;;4978176;28;20018;-74
2022/08/14 03:41:39;;;;;;;1.42;0.60;;;20.80;68.50;;;;;;4976255;28;20027;-77
2022/08/14 03:44:09;;;;;;;0.57;0.40;;;21.20;67.00;;;;;;4979535;28;20068;-75
2022/08/14 03:46:38;;;;;;;0.30;0.30;;;21.50;64.60;;;;;;4974576;28;20026;-78
2022/08/14 03:49:06;;;;;;;1.33;0.40;;;21.60;64.80;;;;;;4977728;28;20550;-75
2022/08/14 03:51:39;;;;;;;1.10;0.30;;;21.80;64.70;;;;;;4973564;28;20039;-77
2022/08/14 03:54:07;;;;;;;0.50;0.30;;;22.20;65.20;;;;;;4977356;28;20034;-75
2022/08/14 03:56:36;;;;;;;2.03;0.40;;;22.40;63.90;;;;;;4975185;28;20037;-76
2022/08/14 03:59:10;;;;;;;0.30;0.30;;;22.60;65.30;;;;;;4978092;28;20072;-75
2022/08/14 04:01:41;;;;;;;0.43;0.38;;;23.00;63.10;;;;;;4974818;28;20375;-73
2022/08/14 04:04:09;;;;;;;0.50;0.30;;;23.10;62.00;;;;;;4975584;28;20018;-75
2022/08/14 04:06:39;;;;;;;0.60;0.40;;;23.00;63.30;;;;;;4972251;28;20034;-74
2022/08/14 04:09:09;;;;;;;0.30;0.30;;;23.30;62.40;;;;;;4975589;28;20042;-75
2022/08/14 04:11:37;;;;;;;0.60;0.50;;;23.30;62.10;;;;;;4974902;28;20502;-74
2022/08/14 04:14:06;;;;;;;1.38;0.40;;;23.60;62.10;;;;;;4976046;28;20026;-75
2022/08/14 04:16:33;;;;;;;0.82;0.30;;;23.80;62.00;;;;;;4975546;28;20042;-72
2022/08/14 04:19:03;;;;;;;0.60;0.30;;;24.10;60.80;;;;;;4975237;28;20030;-75
2022/08/14 04:21:31;;;;;;;0.35;0.32;;;24.00;60.90;;;;;;4976655;28;20019;-74
2022/08/14 04:24:00;;;;;;;0.28;0.28;;;24.00;62.00;;;;;;4974227;28;20034;-73
2022/08/14 04:26:30;;;;;;;2.85;1.40;;;24.00;61.10;;;;;;4966593;28;20014;-70
2022/08/14 04:28:57;;;;;;;1.05;0.30;;;24.10;60.90;;;;;;4973554;28;20072;-72
2022/08/14 04:31:25;;;;;;;0.90;0.40;;;23.80;60.70;;;;;;4976427;28;20042;-74
2022/08/14 04:33:54;;;;;;;0.40;0.30;;;23.50;61.10;;;;;;4973320;28;20018;-74
2022/08/14 04:36:21;;;;;;;0.30;0.30;;;23.40;61.70;;;;;;4965108;28;20022;-73
2022/08/14 04:44:20;;;;;;;1.63;1.27;;;23.20;62.60;;;;;;4976550;28;20142;-73
2022/08/14 04:49:35;;;;;;;0.47;0.40;;;23.20;62.50;;;;;;4973982;28;20070;-73
2022/08/14 04:52:03;;;;;;;0.50;0.40;;;22.90;62.60;;;;;;4972755;28;20023;-73
2022/08/14 04:54:31;;;;;;;0.57;0.40;;;22.40;63.30;;;;;;4975645;28;20056;-75
2022/08/14 04:56:58;;;;;;;1.20;0.50;;;21.60;64.40;;;;;;4972693;28;20054;-72
2022/08/14 04:59:26;;;;;;;0.50;0.40;;;20.80;65.90;;;;;;4976732;28;20445;-73
2022/08/14 05:01:53;;;;;;;0.50;0.50;;;20.10;67.30;;;;;;4974515;28;20019;-72
2022/08/14 05:04:23;;;;;;;0.47;0.40;;;19.60;68.70;;;;;;4978247;28;20018;-72
2022/08/14 05:06:53;;;;;;;1.15;0.50;;;19.60;69.60;;;;;;4976247;28;20114;-73
2022/08/14 05:09:21;;;;;;;0.85;0.40;;;19.80;69.30;;;;;;4980564;28;20074;-72
2022/08/14 05:11:49;;;;;;;0.95;0.70;;;20.30;67.90;;;;;;4977380;28;20072;-73
2022/08/14 05:14:17;;;;;;;0.75;0.40;;;21.10;66.90;;;;;;4980451;28;20027;-73
2022/08/14 05:16:45;;;;;;;0.85;0.40;;;21.40;66.10;;;;;;4978146;28;20117;-74
2022/08/14 05:19:13;;;;;;;0.85;0.32;;;21.80;65.20;;;;;;4978744;28;20068;-71
2022/08/14 05:21:43;;;;;;;0.30;0.30;;;21.90;63.40;;;;;;4979978;28;20473;-71
2022/08/14 05:24:11;;;;;;;0.50;0.50;;;21.30;64.40;;;;;;4978112;28;20278;-73
2022/08/14 05:26:43;;;;;;;0.40;0.32;;;21.20;65.50;;;;;;4979543;28;20041;-71
2022/08/14 05:29:10;;;;;;;0.50;0.50;;;21.70;64.00;;;;;;4958445;28;20047;-72
2022/08/14 05:31:40;;;;;;;1.80;0.43;;;22.30;63.80;;;;;;4971898;28;20098;-73
2022/08/14 05:34:09;;;;;;;0.52;0.30;;;22.50;63.00;;;;;;4972581;28;20327;-71
2022/08/14 05:36:37;;;;;;;0.55;0.35;;;22.40;63.50;;;;;;4959835;28;20027;-72
2022/08/14 05:39:05;;;;;;;1.25;0.30;;;22.90;63.00;;;;;;4977657;28;20480;-70
2022/08/14 05:41:33;;;;;;;0.30;0.30;;;22.90;62.60;;;;;;4979431;28;20057;-70
2022/08/14 05:44:01;;;;;;;1.38;0.50;;;22.80;62.50;;;;;;4977227;28;20403;-69
2022/08/14 05:46:28;;;;;;;0.73;0.40;;;22.80;62.80;;;;;;4979552;28;20426;-70
2022/08/14 05:48:57;;;;;;;1.45;0.38;;;23.00;61.90;;;;;;4975353;28;20689;-72
2022/08/14 05:51:26;;;;;;;2.60;0.80;;;23.20;61.50;;;;;;4978647;28;20031;-72
2022/08/14 05:53:53;;;;;;;0.98;0.50;;;23.20;61.20;;;;;;4977761;28;20030;-71
2022/08/14 05:56:22;;;;;;;1.38;0.98;;;23.20;61.90;;;;;;4979474;28;20057;-72
2022/08/14 05:58:49;;;;;;;0.73;0.40;;;23.50;61.10;;;;;;4978024;28;20558;-72
2022/08/14 06:01:17;;;;;;;1.95;0.40;;;23.20;60.50;;;;;;4978290;28;20377;-72
2022/08/14 06:03:44;;;;;;;1.02;0.30;;;22.80;61.80;;;;;;4978151;28;20022;-73
2022/08/14 06:06:11;;;;;;;0.35;0.30;;;22.70;62.20;;;;;;4976265;28;20551;-73
2022/08/14 06:08:39;;;;;;;0.55;0.30;;;22.70;61.90;;;;;;4978431;28;20438;-72
2022/08/14 06:11:08;;;;;;;0.40;0.30;;;22.80;62.10;;;;;;4976153;28;20034;-72
2022/08/14 06:13:39;;;;;;;1.48;0.40;;;23.10;61.70;;;;;;4979457;28;20116;-74
2022/08/14 06:16:07;;;;;;;0.32;0.32;;;22.10;62.60;;;;;;4976420;28;20029;-72
2022/08/14 06:18:35;;;;;;;0.70;0.40;;;21.70;63.90;;;;;;4978744;28;20041;-71
2022/08/14 06:21:04;;;;;;;0.50;0.30;;;21.30;63.90;;;;;;4976610;28;20157;-72
2022/08/14 06:23:32;;;;;;;1.30;0.40;;;20.70;64.80;;;;;;4978545;28;20061;-72
2022/08/14 06:25:59;;;;;;;0.30;0.30;;;20.60;66.10;;;;;;4974675;28;20026;-73
2022/08/14 06:28:27;;;;;;;0.32;0.30;;;20.70;66.00;;;;;;4977519;28;20053;-72
2022/08/14 06:30:55;;;;;;;1.38;0.35;;;20.90;66.60;;;;;;4977766;28;20431;-72
2022/08/14 06:33:23;;;;;;;1.10;0.40;;;21.20;65.20;;;;;;4978025;28;20781;-75
2022/08/14 06:35:50;;;;;;;0.68;0.40;;;21.40;65.00;;;;;;4977155;28;20034;-74
2022/08/14 06:38:20;;;;;;;0.82;0.60;;;21.40;64.40;;;;;;4975845;28;20507;-74
2022/08/14 06:40:48;;;;;;;0.55;0.40;;;21.10;64.50;;;;;;4978381;28;20028;-75
2022/08/14 06:43:18;;;;;;;0.43;0.40;;;20.80;64.70;;;;;;4976787;28;20022;-75
2022/08/14 06:45:50;;;;;;;0.70;0.50;;;20.30;66.00;;;;;;4978601;28;20105;-73
2022/08/14 06:48:21;;;;;;;2.13;0.40;;;19.90;66.70;;;;;;4974762;28;20719;-75
2022/08/14 06:50:51;;;;;;;1.35;0.57;;;19.60;67.40;;;;;;4976298;28;20027;-75
2022/08/14 06:53:19;;;;;;;0.40;0.40;;;19.40;68.30;;;;;;4975919;28;20026;-74
2022/08/14 06:55:47;;;;;;;0.60;0.40;;;19.10;68.90;;;;;;4979452;28;20042;-75
2022/08/14 06:58:17;;;;;;;1.00;0.55;;;18.70;69.90;;;;;;4976836;28;20096;-74
2022/08/14 07:06:17;;;;;;;0.70;0.50;;;17.90;72.10;;;;;;4977370;28;20106;-73
2022/08/14 07:08:45;;;;;;;1.45;0.52;;;17.60;72.60;;;;;;4977454;28;20139;-75
2022/08/14 07:11:13;;;;;;;1.10;0.63;;;17.20;73.30;;;;;;4977131;28;20361;-74
2022/08/14 07:13:40;;;;;;;0.85;0.50;;;17.10;73.80;;;;;;4975732;28;20057;-73
2022/08/14 07:16:11;;;;;;;0.68;0.68;;;16.90;73.90;;;;;;4975464;28;20048;-73
2022/08/14 07:18:40;;;;;;;0.60;0.50;;;16.80;74.30;;;;;;4974279;28;20023;-74
2022/08/14 07:21:09;;;;;;;1.30;0.50;;;16.60;74.60;;;;;;4976200;28;20391;-74
2022/08/14 07:23:37;;;;;;;0.82;0.60;;;16.50;75.40;;;;;;4972711;28;20042;-73
2022/08/14 07:26:05;;;;;;;2.40;0.80;;;16.40;75.30;;;;;;4976320;28;20443;-74
2022/08/14 07:28:38;;;;;;;1.67;1.23;;;16.40;76.10;;;;;;4976224;28;20108;-75
2022/08/14 07:31:08;;;;;;;2.80;0.93;;;16.20;76.30;;;;;;4977216;28;20027;-74
2022/08/14 07:33:44;;;;;;;1.15;0.80;;;16.10;76.90;;;;;;4974913;28;20026;-73
2022/08/14 07:36:14;;;;;;;1.15;0.68;;;16.00;77.70;;;;;;4976182;28;20858;-72
2022/08/14 07:38:42;;;;;;;2.78;0.80;;;15.90;78.10;;;;;;4975489;28;20022;-73
2022/08/14 07:41:12;;;;;;;0.68;0.68;;;15.90;78.60;;;;;;4976976;28;20022;-74
2022/08/14 07:43:40;;;;;;;0.98;0.65;;;15.80;79.20;;;;;;4974933;28;20072;-74
2022/08/14 07:46:07;;;;;;;1.10;0.77;;;15.70;79.70;;;;;;4976436;28;20033;-73
2022/08/14 07:48:40;;;;;;;1.10;0.57;;;15.60;80.00;;;;;;4976892;28;20070;-74
2022/08/14 07:51:07;;;;;;;0.98;0.52;;;15.60;79.90;;;;;;4976945;28;20057;-73
2022/08/14 07:53:35;;;;;;;0.88;0.40;;;15.50;80.20;;;;;;4976061;28;20084;-73
2022/08/14 07:56:03;;;;;;;1.63;0.70;;;15.50;79.70;;;;;;4975215;28;20106;-73
2022/08/14 07:58:30;;;;;;;1.13;0.63;;;15.40;80.30;;;;;;4975209;28;20108;-73
2022/08/14 08:00:58;;;;;;;1.05;0.40;;;15.30;79.80;;;;;;4976540;28;20037;-73
2022/08/14 08:03:26;;;;;;;0.55;0.47;;;15.30;79.00;;;;;;4976051;28;20077;-73
2022/08/14 08:05:54;;;;;;;0.88;0.60;;;15.30;79.50;;;;;;4976599;28;20029;-73
2022/08/14 08:08:22;;;;;;;0.93;0.68;;;15.20;80.40;;;;;;4974944;28;20030;-71
2022/08/14 08:10:49;;;;;;;0.93;0.60;;;15.10;80.20;;;;;;4977184;28;20026;-72
2022/08/14 08:13:22;;;;;;;1.48;0.90;;;15.10;80.70;;;;;;4974438;28;20030;-72
2022/08/14 08:15:55;;;;;;;1.73;1.00;;;15.00;81.30;;;;;;4976224;28;20148;-71
2022/08/14 08:18:24;;;;;;;1.20;0.93;;;14.90;81.60;;;;;;4974522;28;20029;-73
2022/08/14 08:20:53;;;;;;;1.42;0.82;;;14.80;81.90;;;;;;4977240;28;20027;-74
2022/08/14 08:23:24;;;;;;;1.13;0.80;;;14.80;82.00;;;;;;4973678;28;20104;-72
2022/08/14 08:25:52;;;;;;;1.40;0.73;;;14.70;82.40;;;;;;4976557;28;20065;-70
2022/08/14 08:28:24;;;;;;;1.67;0.60;;;14.60;82.90;;;;;;4974204;28;20046;-70
2022/08/14 08:30:56;;;;;;;1.75;1.05;;;14.60;83.20;;;;;;4975935;28;20085;-72
2022/08/14 08:33:26;;;;;;;1.30;0.60;;;14.50;83.40;;;;;;4968979;28;20042;-71
2022/08/14 08:36:02;;;;;;;0.90;0.60;;;14.50;83.70;;;;;;4973738;28;20101;-70
2022/08/14 08:38:30;;;;;;;1.58;0.80;;;14.50;83.80;;;;;;4975181;28;20104;-70
2022/08/14 08:40:59;;;;;;;1.33;0.70;;;14.40;84.20;;;;;;4981637;28;20101;-71
2022/08/14 08:43:29;;;;;;;1.08;0.63;;;14.40;84.50;;;;;;4973674;28;20098;-70
2022/08/14 08:46:02;;;;;;;1.90;0.80;;;14.30;84.50;;;;;;4977975;28;20032;-69
2022/08/14 08:48:50;;;;;;;2.38;0.73;;;14.30;84.90;;;;;;4978000;28;20034;-70
2022/08/14 08:51:25;;;;;;;2.00;0.90;;;14.30;84.70;;;;;;4980224;28;20037;-73
2022/08/14 08:54:03;;;;;;;1.40;0.80;;;14.20;84.90;;;;;;4961097;28;20173;-72
2022/08/14 08:56:50;;;;;;;1.73;1.00;;;14.20;85.20;;;;;;4967254;28;20479;-70
2022/08/14 08:59:21;;;;;;;1.00;0.60;;;14.10;85.10;;;;;;4979230;28;20049;-72
2022/08/14 09:01:57;;;;;;;1.75;1.02;;;14.10;85.20;;;;;;4973608;28;20027;-74
2022/08/14 09:04:29;;;;;;;1.48;0.82;;;14.10;85.30;;;;;;4970648;28;20089;-70
2022/08/14 09:06:57;;;;;;;1.67;1.17;;;14.00;85.70;;;;;;4977725;28;20018;-69
2022/08/14 09:09:27;;;;;;;2.97;1.38;;;13.90;85.70;;;;;;4978789;28;20038;-69
2022/08/14 09:11:57;;;;;;;5.30;1.13;;;13.90;86.10;;;;;;4978096;28;20060;-71
2022/08/14 09:14:28;;;;;;;2.65;1.50;;;13.90;85.80;;;;;;4978310;28;20515;-70
2022/08/14 09:16:57;;;;;;;2.70;1.52;;;13.80;85.60;;;;;;4969266;28;20065;-72
2022/08/14 09:19:25;;;;;;;3.85;2.45;;;13.90;85.60;;;;;;4979031;28;20220;-70
2022/08/14 09:21:53;;;;;;;4.57;1.88;;;13.80;85.60;;;;;;4978114;28;20018;-71
2022/08/14 09:24:21;;;;;;;3.08;1.40;;;13.80;86.10;;;;;;4980501;28;20109;-71
2022/08/14 09:26:49;;;;;;;1.75;1.08;;;13.80;86.70;;;;;;4977703;28;20042;-72
2022/08/14 09:29:18;;;;;;;2.05;1.00;;;13.70;86.20;;;;;;4978842;28;20119;-73
2022/08/14 09:31:48;;;;;;;1.85;1.20;;;13.80;86.30;;;;;;4979047;28;20018;-73
2022/08/14 09:34:36;;;;;;;1.83;1.08;;;13.80;86.30;;;;;;4976257;28;20050;-73
2022/08/14 09:37:32;;;;;;;3.03;1.40;;;13.80;86.10;;;;;;4976920;28;20077;-76
2022/08/14 09:40:18;;;;;;;3.85;1.23;;;13.70;86.50;;;;;;4978788;28;20402;-74
2022/08/14 09:42:57;;;;;;;1.25;0.70;;;13.80;86.70;;;;;;4978147;28;20085;-74
2022/08/14 09:45:47;;;;;;;2.65;0.90;;;13.70;86.90;;;;;;4977379;28;20041;-74
2022/08/14 09:48:22;;;;;;;1.92;0.88;;;13.70;86.80;;;;;;4976389;28;20114;-72
2022/08/14 09:50:53;;;;;;;1.90;0.90;;;13.60;87.20;;;;;;4978108;28;20476;-74
2022/08/14 09:53:43;;;;;;;1.38;1.27;;;13.60;87.30;;;;;;4977518;28;20526;-75
2022/08/14 09:56:11;;;;;;;1.83;0.90;;;13.60;87.20;;;;;;4978452;28;20034;-73
2022/08/14 09:58:45;;;;;;;2.20;1.15;;;13.50;87.50;;;;;;4977695;28;20126;-74
2022/08/14 10:01:15;;;;;;;1.25;0.85;;;13.50;87.50;;;;;;4977102;28;20022;-73
2022/08/14 10:03:56;;;;;;;2.85;1.05;;;13.40;87.30;;;;;;4977166;28;20049;-73
2022/08/14 10:06:27;;;;;;;2.78;1.30;;;13.40;87.40;;;;;;4991718;28;20521;-73
2022/08/14 10:09:06;;;;;;;1.45;0.82;;;13.40;87.70;;;;;;4978598;28;20096;-74
2022/08/14 10:11:36;;;;;;;1.73;1.05;;;13.30;88.30;;;;;;4978982;28;20026;-74
2022/08/14 10:14:16;;;;;;;1.45;0.98;;;13.20;88.40;;;;;;4977456;28;20022;-74
2022/08/14 10:16:46;;;;;;;1.20;0.95;;;13.20;88.80;;;;;;4978589;28;20121;-73
2022/08/14 10:19:17;;;;;;;1.95;1.10;;;13.20;89.40;;;;;;4977084;28;20018;-73
2022/08/14 10:21:59;;;;;;;1.70;1.20;;;13.20;89.70;;;;;;4975083;28;20030;-75
2022/08/14 10:24:46;;;;;;;2.03;1.08;;;13.10;89.90;;;;;;4975634;28;20487;-73
2022/08/14 10:27:24;;;;;;;2.35;1.55;;;13.10;89.90;;;;;;4975641;28;20411;-72
2022/08/14 10:29:59;;;;;;;1.40;1.02;;;13.10;90.00;;;;;;4976580;28;20034;-72
2022/08/14 10:32:27;;;;;;;1.85;1.42;;;13.10;90.10;;;;;;4975714;28;20046;-74
2022/08/14 10:35:07;;;;;;;1.50;1.20;;;13.00;90.30;;;;;;4974427;28;20081;-74
2022/08/14 10:37:48;;;;;;;2.28;1.17;;;12.90;90.50;;;;;;4973739;28;20117;-75
2022/08/14 10:40:36;;;;;;;1.90;1.20;;;12.90;90.70;;;;;;4974606;28;20022;-73
2022/08/14 10:43:15;;;;;;;3.22;1.70;;;12.90;90.80;;;;;;4976371;28;20018;-72
2022/08/14 10:45:53;;;;;;;1.67;1.40;;;12.90;90.80;;;;;;4974303;28;20182;-72
2022/08/14 10:48:21;;;;;;;2.97;1.98;;;12.90;90.90;;;;;;4974605;28;20037;-72
2022/08/14 10:50:50;;;;;;;2.53;1.58;;;12.80;90.70;;;;;;4976011;28;20077;-72
2022/08/14 10:53:38;;;;;;;2.53;1.30;;;12.80;91.00;;;;;;4975344;28;20026;-74
2022/08/14 10:56:12;;;;;;;4.13;2.30;;;12.80;90.90;;;;;;4976437;28;20037;-73
2022/08/14 10:58:40;;;;;;;3.95;2.28;;;12.80;91.00;;;;;;4974337;28;20043;-73
2022/08/14 11:01:08;;;;;;;3.58;1.88;;;12.80;91.20;;;;;;4976242;28;20073;-72
2022/08/14 11:03:40;;;;;;;2.30;1.48;;;12.80;91.30;;;;;;4973593;28;20050;-73
2022/08/14 11:06:22;;;;;;;1.98;1.20;;;12.70;91.30;;;;;;4976203;28;20076;-73
2022/08/14 11:08:50;;;;;;;0.97;0.80;;;12.70;91.50;;;;;;4974168;28;20048;-73
2022/08/14 11:11:19;;;;;;;1.52;0.80;;;12.70;91.60;;;;;;4974113;28;20670;-75
2022/08/14 11:13:49;;;;;;;1.45;0.88;;;12.70;91.70;;;;;;4973928;28;20034;-74
2022/08/14 11:16:17;;;;;;;2.25;1.00;;;12.60;91.80;;;;;;4975744;28;20024;-73
2022/08/14 11:18:47;;;;;;;2.20;1.20;;;12.60;91.80;;;;;;4975378;28;20026;-73
2022/08/14 11:21:21;;;;;;;3.20;2.10;;;12.60;92.10;;;;;;4975295;28;20450;-72
2022/08/14 11:23:49;;;;;;;5.72;3.28;;;12.60;92.00;;;;;;4974986;28;20033;-72
2022/08/14 11:26:18;;;;;;;5.57;3.35;;;12.60;92.10;;;;;;4974026;28;20380;-72
2022/08/14 11:28:48;;;;;;;3.15;1.92;;;12.50;92.20;;;;;;4976200;28;20018;-73
2022/08/14 11:31:20;;;;;;;2.38;1.38;;;12.50;92.50;;;;;;4973764;28;20064;-74
2022/08/14 11:33:56;;;;;;;2.42;1.33;;;12.50;92.50;;;;;;4974906;28;20387;-72
2022/08/14 11:36:27;;;;;;;2.00;1.40;;;12.40;92.60;;;;;;4974070;28;20109;-75
2022/08/14 11:38:55;;;;;;;2.83;1.98;;;12.50;92.90;;;;;;4974655;28;20018;-74
2022/08/14 11:41:22;;;;;;;1.90;1.25;;;12.40;92.90;;;;;;4975306;28;20022;-73
2022/08/14 11:43:50;;;;;;;1.15;0.90;;;12.40;92.80;;;;;;4975661;28;20026;-73
2022/08/14 11:46:19;;;;;;;1.17;0.80;;;12.40;92.80;;;;;;4975925;28;20027;-73
2022/08/14 11:48:53;;;;;;;1.25;0.60;;;12.50;93.00;;;;;;4975290;28;20491;-72
2022/08/14 11:51:23;;;;;;;1.13;0.80;;;12.50;92.80;;;;;;4974245;28;20060;-73
2022/08/14 11:54:06;;;;;;;0.63;0.60;;;12.50;92.80;;;;;;4974702;28;20022;-73
2022/08/14 11:56:41;;;;;;;1.63;0.93;;;12.50;92.80;;;;;;4975962;28;20375;-73
2022/08/14 11:59:16;;;;;;;0.60;0.50;;;12.50;92.80;;;;;;4975010;28;20026;-71
2022/08/14 12:01:47;;;;;;;2.75;1.00;;;12.50;92.80;;;;;;4974072;28;20053;-73
2022/08/14 12:04:17;;;;;;;1.40;0.80;;;12.50;92.80;;;;;;4973242;28;20026;-73
2022/08/14 12:06:53;;;;;;;1.35;0.60;;;12.50;92.80;;;;;;4971679;28;20035;-74
2022/08/14 12:09:35;;;;;;;1.20;0.70;;;12.50;93.00;;;;;;4977168;28;20038;-73
2022/08/14 12:12:24;;;;;;;1.63;0.80;;;12.50;92.90;;;;;;4976297;28;20026;-72
2022/08/14 12:14:55;;;;;;;1.33;0.70;;;12.60;92.80;;;;;;4983436;28;20041;-71
2022/08/14 12:17:24;;;;;;;1.02;0.52;;;12.60;92.70;;;;;;4984297;28;20509;-73
2022/08/14 12:19:57;;;;;;;2.35;0.77;;;12.50;92.80;;;;;;4983310;28;20440;-74
2022/08/14 12:22:43;;;;;;;2.97;0.80;;;12.50;92.80;;;;;;4983616;28;20050;-74
2022/08/14 12:25:20;;;;;;;0.60;0.60;;;12.50;92.90;;;;;;4981500;28;20121;-73
2022/08/14 12:27:50;;;;;;;1.00;0.68;;;12.50;93.10;;;;;;4982799;28;20033;-72
2022/08/14 12:30:37;;;;;;;1.13;0.70;;;12.40;93.10;;;;;;4982625;28;20046;-73
2022/08/14 12:33:07;;;;;;;1.10;0.60;;;12.40;93.20;;;;;;4981744;28;20057;-74
2022/08/14 12:35:37;;;;;;;0.88;0.70;;;12.40;93.20;;;;;;4982760;28;20041;-72
2022/08/14 12:38:05;;;;;;;1.05;0.70;;;12.40;93.30;;;;;;4981464;28;20209;-72
2022/08/14 12:40:32;;;;;;;0.90;0.77;;;12.40;93.30;;;;;;4982512;28;20487;-73
2022/08/14 12:43:04;;;;;;;1.50;0.90;;;12.40;93.30;;;;;;4982128;28;20512;-73
2022/08/14 12:45:34;;;;;;;1.00;0.70;;;12.40;93.40;;;;;;4982261;28;20502;-73
2022/08/14 12:48:04;;;;;;;0.80;0.63;;;12.40;93.60;;;;;;4981648;28;20026;-72
2022/08/14 12:50:42;;;;;;;1.23;0.70;;;12.40;93.90;;;;;;4982801;28;20734;-72
2022/08/14 12:53:11;;;;;;;2.15;0.88;;;12.40;93.70;;;;;;4981747;28;20031;-73
2022/08/14 12:55:40;;;;;;;1.10;0.80;;;12.40;93.70;;;;;;4982492;28;20018;-73
2022/08/14 12:58:09;;;;;;;0.60;0.60;;;12.40;93.60;;;;;;4996518;28;20487;-74
2022/08/14 13:00:51;;;;;;;1.80;0.70;;;12.30;93.60;;;;;;4981960;28;20092;-71
2022/08/14 13:03:26;;;;;;;1.17;0.80;;;12.30;93.50;;;;;;4981656;28;20315;-74
2022/08/14 13:05:55;;;;;;;0.82;0.70;;;12.30;93.30;;;;;;4980754;28;20030;-73
2022/08/14 13:08:24;;;;;;;1.13;0.63;;;12.30;93.50;;;;;;4981834;28;20105;-73
2022/08/14 13:10:53;;;;;;;1.05;0.70;;;12.30;93.60;;;;;;4982150;28;20038;-73
2022/08/14 13:13:22;;;;;;;0.90;0.73;;;12.30;93.40;;;;;;4980660;28;20034;-73
2022/08/14 13:15:51;;;;;;;0.50;0.47;;;12.20;93.50;;;;;;4982096;28;20395;-75
2022/08/14 13:18:21;;;;;;;1.02;0.50;;;12.20;93.40;;;;;;4981601;28;20062;-75
2022/08/14 13:20:50;;;;;;;0.98;0.70;;;12.20;93.30;;;;;;4982418;28;20106;-72
2022/08/14 13:23:18;;;;;;;0.93;0.70;;;12.20;93.30;;;;;;4981899;28;20109;-75